sensor_id;sensor_type;location;lat;lon;timestamp;P1;durP1;ratioP1;P2;durP2;ratioP2
53714;SDS011;39608;55.630;37.864;2023-05-13T00:04:11;16.02;;;3.90;;
53714;SDS011;39608;55.630;37.864;2023-05-13T00:09:13;8.00;;;3.95;;
53714;SDS011;39608;55.630;37.864;2023-05-13T00:14:17;16.42;;;3.72;;
53714;SDS011;39608;55.630;37.864;2023-05-13T00:19:19;12.38;;;4.55;;
53714;SDS011;39608;55.630;37.864;2023-05-13T00:24:21;10.95;;;4.78;;
53714;SDS011;39608;55.630;37.864;2023-05-13T00:29:25;25.50;;;4.50;;
53714;SDS011;39608;55.630;37.864;2023-05-13T00:34:27;15.30;;;4.47;;
53714;SDS011;39608;55.630;37.864;2023-05-13T00:39:29;11.75;;;4.43;;
53714;SDS011;39608;55.630;37.864;2023-05-13T00:44:32;14.60;;;4.95;;
53714;SDS011;39608;55.630;37.864;2023-05-13T00:49:35;19.88;;;4.82;;
53714;SDS011;39608;55.630;37.864;2023-05-13T00:54:37;13.15;;;4.05;;
53714;SDS011;39608;55.630;37.864;2023-05-13T00:59:41;19.77;;;4.20;;
53714;SDS011;39608;55.630;37.864;2023-05-13T01:04:43;22.40;;;3.75;;
53714;SDS011;39608;55.630;37.864;2023-05-13T01:10:03;12.52;;;3.15;;
53714;SDS011;39608;55.630;37.864;2023-05-13T01:15:11;5.47;;;2.85;;
53714;SDS011;39608;55.630;37.864;2023-05-13T01:20:16;14.93;;;3.47;;
53714;SDS011;39608;55.630;37.864;2023-05-13T01:25:22;17.63;;;3.63;;
53714;SDS011;39608;55.630;37.864;2023-05-13T01:30:25;11.60;;;2.83;;
53714;SDS011;39608;55.630;37.864;2023-05-13T01:35:27;7.85;;;3.00;;
53714;SDS011;39608;55.630;37.864;2023-05-13T01:40:32;23.95;;;3.15;;
53714;SDS011;39608;55.630;37.864;2023-05-13T01:45:35;7.65;;;2.30;;
53714;SDS011;39608;55.630;37.864;2023-05-13T01:50:37;8.18;;;2.60;;
53714;SDS011;39608;55.630;37.864;2023-05-13T01:55:41;7.38;;;3.10;;
53714;SDS011;39608;55.630;37.864;2023-05-13T02:00:43;12.50;;;3.40;;
53714;SDS011;39608;55.630;37.864;2023-05-13T02:05:45;9.32;;;4.00;;
53714;SDS011;39608;55.630;37.864;2023-05-13T02:10:54;9.85;;;4.03;;
53714;SDS011;39608;55.630;37.864;2023-05-13T02:15:56;10.23;;;3.85;;
53714;SDS011;39608;55.630;37.864;2023-05-13T02:20:58;7.35;;;3.55;;
53714;SDS011;39608;55.630;37.864;2023-05-13T02:26:02;7.43;;;3.88;;
53714;SDS011;39608;55.630;37.864;2023-05-13T02:31:04;9.35;;;4.00;;
53714;SDS011;39608;55.630;37.864;2023-05-13T02:36:06;11.20;;;3.95;;
53714;SDS011;39608;55.630;37.864;2023-05-13T02:41:10;14.95;;;3.95;;
53714;SDS011;39608;55.630;37.864;2023-05-13T02:46:12;9.68;;;3.58;;
53714;SDS011;39608;55.630;37.864;2023-05-13T02:51:14;17.77;;;3.75;;
53714;SDS011;39608;55.630;37.864;2023-05-13T02:56:17;12.25;;;3.15;;
53714;SDS011;39608;55.630;37.864;2023-05-13T03:01:20;22.45;;;3.80;;
53714;SDS011;39608;55.630;37.864;2023-05-13T03:06:22;12.48;;;4.35;;
53714;SDS011;39608;55.630;37.864;2023-05-13T03:11:25;10.82;;;3.35;;
53714;SDS011;39608;55.630;37.864;2023-05-13T03:16:27;24.75;;;3.10;;
53714;SDS011;39608;55.630;37.864;2023-05-13T03:21:29;28.58;;;3.10;;
53714;SDS011;39608;55.630;37.864;2023-05-13T03:26:33;17.40;;;3.22;;
53714;SDS011;39608;55.630;37.864;2023-05-13T03:31:35;17.15;;;3.35;;
53714;SDS011;39608;55.630;37.864;2023-05-13T03:36:37;10.18;;;2.83;;
53714;SDS011;39608;55.630;37.864;2023-05-13T03:41:41;9.75;;;2.58;;
53714;SDS011;39608;55.630;37.864;2023-05-13T03:46:43;13.68;;;2.42;;
53714;SDS011;39608;55.630;37.864;2023-05-13T03:51:45;16.27;;;3.20;;
53714;SDS011;39608;55.630;37.864;2023-05-13T03:56:49;7.70;;;2.65;;
53714;SDS011;39608;55.630;37.864;2023-05-13T04:01:51;14.50;;;2.90;;
53714;SDS011;39608;55.630;37.864;2023-05-13T04:06:52;8.80;;;2.40;;
53714;SDS011;39608;55.630;37.864;2023-05-13T04:11:56;13.75;;;2.40;;
53714;SDS011;39608;55.630;37.864;2023-05-13T04:16:58;10.40;;;2.53;;
53714;SDS011;39608;55.630;37.864;2023-05-13T04:22:00;6.45;;;2.10;;
53714;SDS011;39608;55.630;37.864;2023-05-13T04:27:03;2.58;;;2.10;;
53714;SDS011;39608;55.630;37.864;2023-05-13T04:32:06;13.20;;;2.75;;
53714;SDS011;39608;55.630;37.864;2023-05-13T04:37:08;3.50;;;1.77;;
53714;SDS011;39608;55.630;37.864;2023-05-13T04:42:11;6.85;;;2.17;;
53714;SDS011;39608;55.630;37.864;2023-05-13T04:47:14;7.50;;;3.80;;
53714;SDS011;39608;55.630;37.864;2023-05-13T04:52:16;24.92;;;4.35;;
53714;SDS011;39608;55.630;37.864;2023-05-13T04:57:20;9.95;;;2.75;;
53714;SDS011;39608;55.630;37.864;2023-05-13T05:02:22;14.10;;;3.95;;
53714;SDS011;39608;55.630;37.864;2023-05-13T05:07:24;23.20;;;4.47;;
53714;SDS011;39608;55.630;37.864;2023-05-13T05:12:27;18.88;;;3.95;;
53714;SDS011;39608;55.630;37.864;2023-05-13T05:17:30;10.75;;;2.70;;
53714;SDS011;39608;55.630;37.864;2023-05-13T05:22:33;9.40;;;2.58;;
53714;SDS011;39608;55.630;37.864;2023-05-13T05:27:36;12.07;;;2.85;;
53714;SDS011;39608;55.630;37.864;2023-05-13T05:32:39;8.68;;;2.22;;
53714;SDS011;39608;55.630;37.864;2023-05-13T05:37:41;10.82;;;2.83;;
53714;SDS011;39608;55.630;37.864;2023-05-13T05:42:44;6.68;;;2.20;;
53714;SDS011;39608;55.630;37.864;2023-05-13T05:47:47;12.52;;;2.42;;
53714;SDS011;39608;55.630;37.864;2023-05-13T05:52:49;30.05;;;2.40;;
53714;SDS011;39608;55.630;37.864;2023-05-13T05:57:52;7.72;;;1.85;;
53714;SDS011;39608;55.630;37.864;2023-05-13T06:02:55;5.63;;;2.03;;
53714;SDS011;39608;55.630;37.864;2023-05-13T06:07:57;11.43;;;2.10;;
53714;SDS011;39608;55.630;37.864;2023-05-13T06:13:00;7.55;;;1.83;;
53714;SDS011;39608;55.630;37.864;2023-05-13T06:18:02;17.40;;;2.40;;
53714;SDS011;39608;55.630;37.864;2023-05-13T06:23:05;7.10;;;2.00;;
53714;SDS011;39608;55.630;37.864;2023-05-13T06:28:09;13.52;;;2.38;;
53714;SDS011;39608;55.630;37.864;2023-05-13T06:33:11;7.82;;;1.88;;
53714;SDS011;39608;55.630;37.864;2023-05-13T06:38:13;6.80;;;1.70;;
53714;SDS011;39608;55.630;37.864;2023-05-13T06:43:18;7.47;;;1.70;;
53714;SDS011;39608;55.630;37.864;2023-05-13T06:48:20;11.98;;;2.17;;
53714;SDS011;39608;55.630;37.864;2023-05-13T06:53:22;3.70;;;1.77;;
53714;SDS011;39608;55.630;37.864;2023-05-13T06:58:25;11.10;;;1.90;;
53714;SDS011;39608;55.630;37.864;2023-05-13T07:03:28;6.43;;;2.50;;
53714;SDS011;39608;55.630;37.864;2023-05-13T07:08:30;9.00;;;2.22;;
53714;SDS011;39608;55.630;37.864;2023-05-13T07:13:33;23.52;;;2.65;;
53714;SDS011;39608;55.630;37.864;2023-05-13T07:18:35;25.75;;;2.90;;
53714;SDS011;39608;55.630;37.864;2023-05-13T07:23:37;14.38;;;3.25;;
53714;SDS011;39608;55.630;37.864;2023-05-13T07:28:41;18.88;;;2.85;;
53714;SDS011;39608;55.630;37.864;2023-05-13T07:33:43;35.33;;;2.95;;
53714;SDS011;39608;55.630;37.864;2023-05-13T07:38:46;9.73;;;2.33;;
53714;SDS011;39608;55.630;37.864;2023-05-13T07:43:49;9.32;;;1.92;;
53714;SDS011;39608;55.630;37.864;2023-05-13T07:48:51;11.77;;;1.95;;
53714;SDS011;39608;55.630;37.864;2023-05-13T07:53:53;7.20;;;2.08;;
53714;SDS011;39608;55.630;37.864;2023-05-13T07:58:57;3.95;;;1.70;;
53714;SDS011;39608;55.630;37.864;2023-05-13T08:03:59;19.73;;;2.47;;
53714;SDS011;39608;55.630;37.864;2023-05-13T08:09:01;3.88;;;1.60;;
53714;SDS011;39608;55.630;37.864;2023-05-13T08:14:05;10.57;;;2.28;;
53714;SDS011;39608;55.630;37.864;2023-05-13T08:19:08;11.93;;;2.42;;
53714;SDS011;39608;55.630;37.864;2023-05-13T08:24:10;9.60;;;1.77;;
53714;SDS011;39608;55.630;37.864;2023-05-13T08:29:14;6.43;;;2.25;;
53714;SDS011;39608;55.630;37.864;2023-05-13T08:34:16;16.38;;;2.25;;
53714;SDS011;39608;55.630;37.864;2023-05-13T08:39:18;14.98;;;2.05;;
53714;SDS011;39608;55.630;37.864;2023-05-13T08:44:21;11.73;;;2.40;;
53714;SDS011;39608;55.630;37.864;2023-05-13T08:49:27;13.27;;;2.25;;
53714;SDS011;39608;55.630;37.864;2023-05-13T08:54:30;17.02;;;2.63;;
53714;SDS011;39608;55.630;37.864;2023-05-13T08:59:34;6.75;;;2.08;;
53714;SDS011;39608;55.630;37.864;2023-05-13T09:04:36;16.63;;;2.08;;
53714;SDS011;39608;55.630;37.864;2023-05-13T09:09:41;9.98;;;2.40;;
53714;SDS011;39608;55.630;37.864;2023-05-13T09:14:45;11.15;;;1.92;;
53714;SDS011;39608;55.630;37.864;2023-05-13T09:19:47;11.50;;;1.88;;
53714;SDS011;39608;55.630;37.864;2023-05-13T09:24:52;9.40;;;1.90;;
53714;SDS011;39608;55.630;37.864;2023-05-13T09:29:59;12.30;;;1.92;;
53714;SDS011;39608;55.630;37.864;2023-05-13T09:35:07;12.82;;;2.05;;
53714;SDS011;39608;55.630;37.864;2023-05-13T09:40:11;13.27;;;2.00;;
53714;SDS011;39608;55.630;37.864;2023-05-13T09:45:16;11.63;;;1.48;;
53714;SDS011;39608;55.630;37.864;2023-05-13T09:50:18;7.80;;;2.25;;
53714;SDS011;39608;55.630;37.864;2023-05-13T09:55:20;7.50;;;1.55;;
53714;SDS011;39608;55.630;37.864;2023-05-13T10:00:24;10.05;;;2.15;;
53714;SDS011;39608;55.630;37.864;2023-05-13T10:05:26;5.10;;;1.50;;
53714;SDS011;39608;55.630;37.864;2023-05-13T10:10:29;8.02;;;1.42;;
53714;SDS011;39608;55.630;37.864;2023-05-13T10:15:34;10.23;;;1.88;;
53714;SDS011;39608;55.630;37.864;2023-05-13T10:20:36;7.07;;;1.95;;
53714;SDS011;39608;55.630;37.864;2023-05-13T10:25:39;10.15;;;2.08;;
53714;SDS011;39608;55.630;37.864;2023-05-13T10:30:44;8.35;;;1.75;;
53714;SDS011;39608;55.630;37.864;2023-05-13T10:35:50;5.22;;;1.80;;
53714;SDS011;39608;55.630;37.864;2023-05-13T10:41:05;6.35;;;1.55;;
53714;SDS011;39608;55.630;37.864;2023-05-13T10:46:12;8.85;;;1.85;;
53714;SDS011;39608;55.630;37.864;2023-05-13T10:51:14;27.10;;;2.67;;
53714;SDS011;39608;55.630;37.864;2023-05-13T10:56:18;10.57;;;1.60;;
53714;SDS011;39608;55.630;37.864;2023-05-13T11:01:26;2.50;;;1.27;;
53714;SDS011;39608;55.630;37.864;2023-05-13T11:06:29;12.18;;;2.30;;
53714;SDS011;39608;55.630;37.864;2023-05-13T11:11:36;12.40;;;2.53;;
53714;SDS011;39608;55.630;37.864;2023-05-13T11:16:41;5.10;;;1.95;;
53714;SDS011;39608;55.630;37.864;2023-05-13T11:21:47;7.03;;;2.00;;
53714;SDS011;39608;55.630;37.864;2023-05-13T11:26:52;16.95;;;2.00;;
53714;SDS011;39608;55.630;37.864;2023-05-13T11:31:58;5.00;;;1.50;;
53714;SDS011;39608;55.630;37.864;2023-05-13T11:37:05;5.85;;;1.70;;
53714;SDS011;39608;55.630;37.864;2023-05-13T11:42:09;10.32;;;1.60;;
53714;SDS011;39608;55.630;37.864;2023-05-13T11:47:13;3.85;;;1.70;;
53714;SDS011;39608;55.630;37.864;2023-05-13T11:52:15;6.88;;;1.70;;
53714;SDS011;39608;55.630;37.864;2023-05-13T11:57:20;3.35;;;1.65;;
53714;SDS011;39608;55.630;37.864;2023-05-13T12:02:24;5.28;;;1.70;;
53714;SDS011;39608;55.630;37.864;2023-05-13T12:07:27;3.07;;;1.33;;
53714;SDS011;39608;55.630;37.864;2023-05-13T12:12:30;8.10;;;1.48;;
53714;SDS011;39608;55.630;37.864;2023-05-13T12:17:39;9.82;;;1.58;;
53714;SDS011;39608;55.630;37.864;2023-05-13T12:22:49;5.10;;;1.80;;
53714;SDS011;39608;55.630;37.864;2023-05-13T12:27:56;11.15;;;2.22;;
53714;SDS011;39608;55.630;37.864;2023-05-13T12:32:59;8.45;;;1.92;;
53714;SDS011;39608;55.630;37.864;2023-05-13T12:38:01;9.70;;;1.90;;
53714;SDS011;39608;55.630;37.864;2023-05-13T12:43:04;4.93;;;1.95;;
53714;SDS011;39608;55.630;37.864;2023-05-13T12:48:08;9.48;;;1.80;;
53714;SDS011;39608;55.630;37.864;2023-05-13T12:53:11;8.88;;;1.58;;
53714;SDS011;39608;55.630;37.864;2023-05-13T12:58:13;13.30;;;1.55;;
53714;SDS011;39608;55.630;37.864;2023-05-13T13:03:16;15.20;;;5.55;;
53714;SDS011;39608;55.630;37.864;2023-05-13T13:08:18;77.55;;;5.50;;
53714;SDS011;39608;55.630;37.864;2023-05-13T13:13:20;5.53;;;1.63;;
53714;SDS011;39608;55.630;37.864;2023-05-13T13:18:23;3.03;;;1.60;;
53714;SDS011;39608;55.630;37.864;2023-05-13T13:23:26;10.93;;;2.00;;
53714;SDS011;39608;55.630;37.864;2023-05-13T13:28:28;4.78;;;1.60;;
53714;SDS011;39608;55.630;37.864;2023-05-13T13:33:32;4.07;;;1.63;;
53714;SDS011;39608;55.630;37.864;2023-05-13T13:38:34;5.78;;;1.90;;
53714;SDS011;39608;55.630;37.864;2023-05-13T13:43:36;1.83;;;1.65;;
53714;SDS011;39608;55.630;37.864;2023-05-13T13:48:40;4.88;;;2.10;;
53714;SDS011;39608;55.630;37.864;2023-05-13T13:53:42;3.13;;;1.63;;
53714;SDS011;39608;55.630;37.864;2023-05-13T13:58:44;4.50;;;2.22;;
53714;SDS011;39608;55.630;37.864;2023-05-13T14:03:48;2.05;;;1.23;;
53714;SDS011;39608;55.630;37.864;2023-05-13T14:08:51;3.97;;;2.13;;
53714;SDS011;39608;55.630;37.864;2023-05-13T14:13:53;10.10;;;2.10;;
53714;SDS011;39608;55.630;37.864;2023-05-13T14:18:57;9.48;;;1.90;;
53714;SDS011;39608;55.630;37.864;2023-05-13T14:23:59;9.45;;;1.75;;
53714;SDS011;39608;55.630;37.864;2023-05-13T14:29:01;6.97;;;1.70;;
53714;SDS011;39608;55.630;37.864;2023-05-13T14:34:04;5.63;;;1.88;;
53714;SDS011;39608;55.630;37.864;2023-05-13T14:39:07;8.75;;;1.95;;
53714;SDS011;39608;55.630;37.864;2023-05-13T14:44:09;4.18;;;1.77;;
53714;SDS011;39608;55.630;37.864;2023-05-13T14:49:13;6.28;;;1.98;;
53714;SDS011;39608;55.630;37.864;2023-05-13T14:54:15;6.07;;;2.05;;
53714;SDS011;39608;55.630;37.864;2023-05-13T14:59:17;10.52;;;2.10;;
53714;SDS011;39608;55.630;37.864;2023-05-13T15:04:21;15.65;;;2.30;;
53714;SDS011;39608;55.630;37.864;2023-05-13T15:09:23;6.95;;;2.28;;
53714;SDS011;39608;55.630;37.864;2023-05-13T15:14:27;8.77;;;2.15;;
53714;SDS011;39608;55.630;37.864;2023-05-13T15:19:30;5.47;;;2.13;;
53714;SDS011;39608;55.630;37.864;2023-05-13T15:24:32;5.38;;;1.63;;
53714;SDS011;39608;55.630;37.864;2023-05-13T15:29:34;5.65;;;1.60;;
53714;SDS011;39608;55.630;37.864;2023-05-13T15:34:38;4.47;;;1.70;;
53714;SDS011;39608;55.630;37.864;2023-05-13T15:39:40;3.78;;;1.60;;
53714;SDS011;39608;55.630;37.864;2023-05-13T15:44:42;2.90;;;1.55;;
53714;SDS011;39608;55.630;37.864;2023-05-13T15:49:46;2.97;;;1.98;;
53714;SDS011;39608;55.630;37.864;2023-05-13T15:54:49;5.20;;;2.13;;
53714;SDS011;39608;55.630;37.864;2023-05-13T15:59:52;5.07;;;1.60;;
53714;SDS011;39608;55.630;37.864;2023-05-13T16:04:55;3.38;;;2.10;;
53714;SDS011;39608;55.630;37.864;2023-05-13T16:09:57;6.30;;;2.15;;
53714;SDS011;39608;55.630;37.864;2023-05-13T16:14:59;8.43;;;2.58;;
53714;SDS011;39608;55.630;37.864;2023-05-13T16:20:04;10.73;;;3.20;;
53714;SDS011;39608;55.630;37.864;2023-05-13T16:25:08;18.92;;;3.08;;
53714;SDS011;39608;55.630;37.864;2023-05-13T16:30:11;9.50;;;3.35;;
53714;SDS011;39608;55.630;37.864;2023-05-13T16:35:15;4.20;;;2.97;;
53714;SDS011;39608;55.630;37.864;2023-05-13T16:40:17;7.50;;;2.65;;
53714;SDS011;39608;55.630;37.864;2023-05-13T16:45:20;6.65;;;2.58;;
53714;SDS011;39608;55.630;37.864;2023-05-13T16:50:26;9.70;;;2.88;;
53714;SDS011;39608;55.630;37.864;2023-05-13T16:55:29;11.70;;;2.38;;
53714;SDS011;39608;55.630;37.864;2023-05-13T17:00:31;5.32;;;1.85;;
53714;SDS011;39608;55.630;37.864;2023-05-13T17:05:35;4.30;;;2.53;;
53714;SDS011;39608;55.630;37.864;2023-05-13T17:10:37;8.65;;;2.50;;
53714;SDS011;39608;55.630;37.864;2023-05-13T17:15:39;12.68;;;2.90;;
53714;SDS011;39608;55.630;37.864;2023-05-13T17:20:43;10.30;;;2.72;;
53714;SDS011;39608;55.630;37.864;2023-05-13T17:25:45;9.30;;;2.53;;
53714;SDS011;39608;55.630;37.864;2023-05-13T17:30:47;6.60;;;2.70;;
53714;SDS011;39608;55.630;37.864;2023-05-13T17:35:50;6.18;;;2.50;;
53714;SDS011;39608;55.630;37.864;2023-05-13T17:40:53;13.52;;;2.45;;
53714;SDS011;39608;55.630;37.864;2023-05-13T17:45:55;7.43;;;2.40;;
53714;SDS011;39608;55.630;37.864;2023-05-13T17:50:59;11.05;;;2.08;;
53714;SDS011;39608;55.630;37.864;2023-05-13T17:56:01;4.60;;;2.08;;
53714;SDS011;39608;55.630;37.864;2023-05-13T18:01:04;6.45;;;2.17;;
53714;SDS011;39608;55.630;37.864;2023-05-13T18:06:08;7.97;;;2.33;;
53714;SDS011;39608;55.630;37.864;2023-05-13T18:11:10;6.05;;;2.10;;
53714;SDS011;39608;55.630;37.864;2023-05-13T18:16:12;6.85;;;2.40;;
53714;SDS011;39608;55.630;37.864;2023-05-13T18:21:16;12.82;;;2.40;;
53714;SDS011;39608;55.630;37.864;2023-05-13T18:26:18;5.50;;;2.15;;
53714;SDS011;39608;55.630;37.864;2023-05-13T18:31:20;4.13;;;2.55;;
53714;SDS011;39608;55.630;37.864;2023-05-13T18:36:23;5.55;;;2.22;;
53714;SDS011;39608;55.630;37.864;2023-05-13T18:41:26;8.02;;;2.80;;
53714;SDS011;39608;55.630;37.864;2023-05-13T18:46:28;7.75;;;2.60;;
53714;SDS011;39608;55.630;37.864;2023-05-13T18:51:32;7.55;;;3.08;;
53714;SDS011;39608;55.630;37.864;2023-05-13T18:56:34;5.20;;;2.80;;
53714;SDS011;39608;55.630;37.864;2023-05-13T19:01:37;12.18;;;3.00;;
53714;SDS011;39608;55.630;37.864;2023-05-13T19:06:42;8.00;;;3.33;;
53714;SDS011;39608;55.630;37.864;2023-05-13T19:11:45;5.57;;;2.88;;
53714;SDS011;39608;55.630;37.864;2023-05-13T19:16:47;7.25;;;3.10;;
53714;SDS011;39608;55.630;37.864;2023-05-13T19:21:51;6.10;;;3.00;;
53714;SDS011;39608;55.630;37.864;2023-05-13T19:26:54;5.68;;;2.80;;
53714;SDS011;39608;55.630;37.864;2023-05-13T19:31:56;7.30;;;2.95;;
53714;SDS011;39608;55.630;37.864;2023-05-13T19:37:00;9.07;;;3.42;;
53714;SDS011;39608;55.630;37.864;2023-05-13T19:42:04;14.43;;;3.58;;
53714;SDS011;39608;55.630;37.864;2023-05-13T19:47:07;11.18;;;2.72;;
53714;SDS011;39608;55.630;37.864;2023-05-13T19:52:11;4.97;;;2.40;;
53714;SDS011;39608;55.630;37.864;2023-05-13T19:57:13;9.18;;;2.85;;
53714;SDS011;39608;55.630;37.864;2023-05-13T20:02:16;9.15;;;2.65;;
53714;SDS011;39608;55.630;37.864;2023-05-13T20:07:22;9.43;;;2.65;;
53714;SDS011;39608;55.630;37.864;2023-05-13T20:12:24;15.82;;;2.85;;
53714;SDS011;39608;55.630;37.864;2023-05-13T20:17:29;3.58;;;2.20;;
53714;SDS011;39608;55.630;37.864;2023-05-13T20:22:33;5.95;;;2.10;;
53714;SDS011;39608;55.630;37.864;2023-05-13T20:27:35;9.02;;;2.20;;
53714;SDS011;39608;55.630;37.864;2023-05-13T20:32:38;7.00;;;1.70;;
53714;SDS011;39608;55.630;37.864;2023-05-13T20:37:43;11.27;;;2.13;;
53714;SDS011;39608;55.630;37.864;2023-05-13T20:42:45;7.63;;;2.22;;
53714;SDS011;39608;55.630;37.864;2023-05-13T20:47:48;3.30;;;2.20;;
53714;SDS011;39608;55.630;37.864;2023-05-13T20:52:52;9.75;;;2.03;;
53714;SDS011;39608;55.630;37.864;2023-05-13T20:57:55;9.43;;;1.98;;
53714;SDS011;39608;55.630;37.864;2023-05-13T21:02:57;3.80;;;1.98;;
53714;SDS011;39608;55.630;37.864;2023-05-13T21:08:01;4.93;;;2.38;;
53714;SDS011;39608;55.630;37.864;2023-05-13T21:13:03;3.53;;;2.05;;
53714;SDS011;39608;55.630;37.864;2023-05-13T21:18:05;8.10;;;2.03;;
53714;SDS011;39608;55.630;37.864;2023-05-13T21:23:09;8.10;;;2.22;;
53714;SDS011;39608;55.630;37.864;2023-05-13T21:28:11;3.90;;;2.25;;
53714;SDS011;39608;55.630;37.864;2023-05-13T21:33:13;7.90;;;2.63;;
53714;SDS011;39608;55.630;37.864;2023-05-13T21:38:17;3.50;;;1.83;;
53714;SDS011;39608;55.630;37.864;2023-05-13T21:43:19;7.13;;;2.33;;
53714;SDS011;39608;55.630;37.864;2023-05-13T21:48:21;7.63;;;2.20;;
53714;SDS011;39608;55.630;37.864;2023-05-13T21:53:25;6.35;;;2.33;;
53714;SDS011;39608;55.630;37.864;2023-05-13T21:58:27;11.82;;;2.03;;
53714;SDS011;39608;55.630;37.864;2023-05-13T22:03:29;6.65;;;1.98;;
53714;SDS011;39608;55.630;37.864;2023-05-13T22:08:33;3.90;;;1.90;;
53714;SDS011;39608;55.630;37.864;2023-05-13T22:13:35;6.75;;;1.60;;
53714;SDS011;39608;55.630;37.864;2023-05-13T22:18:37;2.63;;;1.88;;
53714;SDS011;39608;55.630;37.864;2023-05-13T22:23:40;3.58;;;1.35;;
53714;SDS011;39608;55.630;37.864;2023-05-13T22:28:44;5.22;;;1.83;;
53714;SDS011;39608;55.630;37.864;2023-05-13T22:33:46;4.82;;;1.50;;
53714;SDS011;39608;55.630;37.864;2023-05-13T22:38:49;8.18;;;1.73;;
53714;SDS011;39608;55.630;37.864;2023-05-13T22:43:51;3.88;;;1.30;;
53714;SDS011;39608;55.630;37.864;2023-05-13T22:48:54;2.47;;;1.52;;
53714;SDS011;39608;55.630;37.864;2023-05-13T22:53:57;5.85;;;1.42;;
53714;SDS011;39608;55.630;37.864;2023-05-13T22:58:59;3.00;;;1.55;;
53714;SDS011;39608;55.630;37.864;2023-05-13T23:04:01;1.73;;;1.40;;
53714;SDS011;39608;55.630;37.864;2023-05-13T23:09:06;1.75;;;1.40;;
53714;SDS011;39608;55.630;37.864;2023-05-13T23:14:09;5.35;;;1.92;;
53714;SDS011;39608;55.630;37.864;2023-05-13T23:19:11;9.93;;;1.33;;
53714;SDS011;39608;55.630;37.864;2023-05-13T23:24:14;1.77;;;1.10;;
53714;SDS011;39608;55.630;37.864;2023-05-13T23:29:16;9.90;;;1.20;;
53714;SDS011;39608;55.630;37.864;2023-05-13T23:34:18;5.05;;;1.33;;
53714;SDS011;39608;55.630;37.864;2023-05-13T23:39:22;1.58;;;1.20;;
53714;SDS011;39608;55.630;37.864;2023-05-13T23:44:24;2.72;;;1.10;;
53714;SDS011;39608;55.630;37.864;2023-05-13T23:49:26;3.20;;;1.48;;
53714;SDS011;39608;55.630;37.864;2023-05-13T23:54:30;4.28;;;1.60;;
53714;SDS011;39608;55.630;37.864;2023-05-13T23:59:32;6.90;;;1.48;;
